Time;durP1;ratioP1;P1;durP2;ratioP2;P2;SDS_P1;SDS_P2;PMS_P1;PMS_P2;Temp;Humidity;BMP_temperature;BMP_pressure;BME280_temperature;BME280_humidity;BME280_pressure;Samples;Min_cycle;Max_cycle;Signal;HPM_P1;HPM_P2
2023/12/15 00:00:52;;;;;;;7.73;6.67;;;;;21.20;101599.00;;;;2071130;28;20226;-69
2023/12/15 00:01:52;;;;;;;9.23;6.83;;;;;21.30;101603.00;;;;2080390;28;20236;-69
2023/12/15 00:02:52;;;;;;;7.40;6.10;;;;;21.20;101602.00;;;;2080804;28;20287;-69
2023/12/15 00:03:53;;;;;;;7.50;6.40;;;;;21.20;101604.00;;;;2080620;28;20287;-69
2023/12/15 00:04:53;;;;;;;7.87;6.47;;;;;21.30;101598.00;;;;2080269;28;20280;-69
2023/12/15 00:05:54;;;;;;;8.00;6.63;;;;;21.20;101583.00;;;;2070743;28;20217;-69
2023/12/15 00:06:54;;;;;;;8.53;6.60;;;;;21.20;101592.00;;;;2080863;28;20229;-69
2023/12/15 00:07:55;;;;;;;8.03;7.03;;;;;21.20;101591.00;;;;2079358;28;21003;-69
2023/12/15 00:08:55;;;;;;;6.93;6.03;;;;;21.20;101598.00;;;;2080125;28;20231;-69
2023/12/15 00:09:55;;;;;;;7.50;6.07;;;;;21.20;101586.00;;;;2078295;28;20209;-69
2023/12/15 00:10:56;;;;;;;8.60;6.53;;;;;21.20;101593.00;;;;2070960;28;20370;-69
2023/12/15 00:11:56;;;;;;;7.80;6.70;;;;;21.20;101586.00;;;;2079368;28;20625;-69
2023/12/15 00:12:56;;;;;;;6.87;6.17;;;;;21.20;101594.00;;;;2078112;28;20244;-69
2023/12/15 00:13:57;;;;;;;9.37;6.43;;;;;21.20;101600.00;;;;2080352;28;20218;-69
2023/12/15 00:14:57;;;;;;;7.33;6.10;;;;;21.20;101583.00;;;;2073216;28;20226;-69
2023/12/15 00:15:57;;;;;;;7.20;6.40;;;;;21.20;101590.00;;;;2075794;28;20228;-69
2023/12/15 00:16:57;;;;;;;7.10;5.93;;;;;21.20;101582.00;;;;2077048;28;20225;-69
2023/12/15 00:17:59;;;;;;;7.93;6.43;;;;;21.10;101587.00;;;;2080169;28;20302;-69
2023/12/15 00:18:59;;;;;;;7.15;6.15;;;;;21.20;101587.00;;;;2080183;28;20225;-69
2023/12/15 00:19:59;;;;;;;7.63;6.33;;;;;21.20;101596.00;;;;2070404;28;20213;-69
2023/12/15 00:20:59;;;;;;;7.60;6.37;;;;;21.20;101602.00;;;;2079219;28;20209;-69
2023/12/15 00:22:00;;;;;;;7.60;6.70;;;;;21.10;101593.00;;;;2071401;28;20227;-69
2023/12/15 00:23:00;;;;;;;7.20;5.80;;;;;21.10;101603.00;;;;2075769;28;20214;-69
2023/12/15 00:24:02;;;;;;;7.57;5.77;;;;;21.20;101596.00;;;;2078674;28;20267;-69
2023/12/15 00:25:03;;;;;;;8.43;6.50;;;;;21.10;101599.00;;;;2070938;28;20296;-70
2023/12/15 00:26:03;;;;;;;10.77;6.90;;;;;21.10;101601.00;;;;2079907;28;20225;-70
2023/12/15 00:27:04;;;;;;;7.37;6.30;;;;;21.10;101606.00;;;;2079425;28;20748;-70
2023/12/15 00:28:04;;;;;;;7.57;6.30;;;;;21.10;101596.00;;;;2080107;28;20224;-69
2023/12/15 00:29:04;;;;;;;8.23;6.33;;;;;21.10;101608.00;;;;2079073;28;20291;-69
2023/12/15 00:30:05;;;;;;;7.47;6.13;;;;;21.10;101602.00;;;;2069997;28;20368;-69
2023/12/15 00:31:06;;;;;;;6.37;5.70;;;;;21.10;101609.00;;;;2076628;28;20225;-69
2023/12/15 00:32:06;;;;;;;7.80;5.87;;;;;21.10;101609.00;;;;2076382;28;21733;-69
2023/12/15 00:33:06;;;;;;;6.70;6.00;;;;;21.10;101607.00;;;;2080637;28;20217;-69
2023/12/15 00:34:06;;;;;;;7.90;6.43;;;;;21.10;101612.00;;;;2078458;28;20217;-69
2023/12/15 00:35:07;;;;;;;8.00;5.60;;;;;21.10;101603.00;;;;2070001;28;20221;-69
2023/12/15 00:36:08;;;;;;;8.17;6.10;;;;;21.10;101606.00;;;;2079688;28;20218;-69
2023/12/15 00:37:08;;;;;;;7.30;5.67;;;;;21.10;101619.00;;;;2083826;28;20304;-69
2023/12/15 00:38:08;;;;;;;7.80;5.43;;;;;21.10;101627.00;;;;2079648;28;20217;-69
2023/12/15 00:39:09;;;;;;;7.03;6.10;;;;;21.10;101628.00;;;;2071175;28;20731;-69
2023/12/15 00:40:12;;;;;;;6.13;5.30;;;;;21.10;101622.00;;;;2060795;28;20620;-69
2023/12/15 00:41:12;;;;;;;6.82;5.70;;;;;21.10;101625.00;;;;2080046;28;20266;-69
2023/12/15 00:42:13;;;;;;;8.97;5.70;;;;;21.10;101628.00;;;;2080505;28;20511;-69
2023/12/15 00:43:14;;;;;;;6.63;5.80;;;;;21.10;101630.00;;;;2080094;28;20231;-69
2023/12/15 00:44:14;;;;;;;8.32;5.97;;;;;21.10;101623.00;;;;2080350;28;20228;-70
2023/12/15 00:45:14;;;;;;;6.40;5.23;;;;;21.10;101621.00;;;;2073031;28;20252;-70
2023/12/15 00:46:15;;;;;;;6.87;5.57;;;;;21.10;101632.00;;;;2090686;28;20209;-70
2023/12/15 00:47:15;;;;;;;9.77;6.40;;;;;21.10;101633.00;;;;2085365;28;20875;-70
2023/12/15 00:48:16;;;;;;;6.00;5.33;;;;;21.10;101630.00;;;;2080086;28;20225;-70
2023/12/15 00:49:16;;;;;;;6.70;5.80;;;;;21.10;101631.00;;;;2080216;28;20217;-70
2023/12/15 00:50:16;;;;;;;7.37;6.00;;;;;21.00;101637.00;;;;2068692;28;20217;-70
2023/12/15 00:51:17;;;;;;;7.40;6.23;;;;;21.10;101638.00;;;;2080264;28;20295;-70
2023/12/15 00:52:17;;;;;;;7.47;5.97;;;;;21.10;101633.00;;;;2079793;28;20617;-70
2023/12/15 00:53:17;;;;;;;7.80;5.10;;;;;21.10;101641.00;;;;2080446;28;20205;-69
2023/12/15 00:54:18;;;;;;;6.77;5.70;;;;;21.10;101635.00;;;;2079667;28;20705;-69
2023/12/15 00:55:18;;;;;;;7.00;5.90;;;;;21.00;101629.00;;;;2070231;28;20713;-69
2023/12/15 00:56:18;;;;;;;9.80;6.27;;;;;21.00;101638.00;;;;2080246;28;20222;-69
2023/12/15 00:57:19;;;;;;;6.90;5.27;;;;;21.00;101640.00;;;;2079685;28;20229;-69
2023/12/15 00:58:19;;;;;;;6.17;5.13;;;;;21.00;101638.00;;;;2080293;28;20205;-69
2023/12/15 00:59:19;;;;;;;7.57;5.40;;;;;21.00;101642.00;;;;2078948;28;20285;-69
2023/12/15 01:00:20;;;;;;;7.13;6.03;;;;;21.00;101653.00;;;;2070991;28;20639;-69
2023/12/15 01:01:20;;;;;;;7.03;5.67;;;;;21.00;101645.00;;;;2080563;28;20551;-69
2023/12/15 01:02:20;;;;;;;5.80;5.20;;;;;21.00;101649.00;;;;2080288;28;20628;-69
2023/12/15 01:03:21;;;;;;;7.37;5.70;;;;;21.00;101651.00;;;;2079682;28;20624;-69
2023/12/15 01:04:21;;;;;;;7.53;5.73;;;;;21.00;101647.00;;;;2080767;28;20624;-69
2023/12/15 01:05:21;;;;;;;6.77;5.47;;;;;21.00;101644.00;;;;2070313;28;20666;-69
2023/12/15 01:06:22;;;;;;;6.93;5.47;;;;;21.00;101646.00;;;;2077738;28;20748;-69
2023/12/15 01:07:23;;;;;;;7.03;5.83;;;;;21.00;101641.00;;;;2079730;28;20220;-69
2023/12/15 01:08:24;;;;;;;7.25;5.47;;;;;21.00;101646.00;;;;2080509;28;20233;-69
2023/12/15 01:09:25;;;;;;;8.00;5.90;;;;;21.00;101644.00;;;;2078354;28;20233;-69
2023/12/15 01:10:25;;;;;;;7.33;6.07;;;;;21.00;101648.00;;;;2069931;28;20514;-69
2023/12/15 01:11:25;;;;;;;7.30;5.53;;;;;21.00;101652.00;;;;2080217;28;20588;-69
2023/12/15 01:12:26;;;;;;;7.17;5.30;;;;;21.00;101646.00;;;;2079665;28;20210;-69
2023/12/15 01:13:26;;;;;;;5.97;5.37;;;;;21.00;101655.00;;;;2080345;28;20229;-69
2023/12/15 01:14:26;;;;;;;6.40;5.63;;;;;21.00;101661.00;;;;2079491;28;20697;-70
2023/12/15 01:15:27;;;;;;;8.07;5.00;;;;;21.00;101662.00;;;;2068107;28;20726;-70
2023/12/15 01:16:27;;;;;;;6.40;5.63;;;;;21.00;101669.00;;;;2080150;28;20245;-70
2023/12/15 01:17:27;;;;;;;7.90;5.80;;;;;21.00;101614.00;;;;2077950;28;20217;-70
2023/12/15 01:18:28;;;;;;;7.30;5.40;;;;;21.00;101668.00;;;;2077322;28;20233;-69
2023/12/15 01:19:28;;;;;;;5.63;5.13;;;;;21.00;101667.00;;;;2066824;28;20225;-69
2023/12/15 01:20:28;;;;;;;9.73;6.00;;;;;21.00;101665.00;;;;2070662;28;20229;-69
2023/12/15 01:21:28;;;;;;;5.90;4.90;;;;;20.90;101668.00;;;;2079256;28;20221;-69
2023/12/15 01:22:29;;;;;;;7.40;4.90;;;;;20.90;101660.00;;;;2079848;28;20219;-69
2023/12/15 01:23:29;;;;;;;6.57;5.20;;;;;20.90;101669.00;;;;2079364;28;20263;-69
2023/12/15 01:24:29;;;;;;;5.23;4.50;;;;;20.90;101657.00;;;;2078772;28;20210;-69
2023/12/15 01:25:30;;;;;;;6.67;4.80;;;;;20.90;101658.00;;;;2070501;28;20263;-69
2023/12/15 01:26:30;;;;;;;6.00;4.33;;;;;20.90;101662.00;;;;2079725;28;20222;-69
2023/12/15 01:27:30;;;;;;;6.67;5.00;;;;;20.90;101670.00;;;;2080139;28;20231;-69
2023/12/15 01:28:31;;;;;;;7.20;5.20;;;;;20.90;101669.00;;;;2079876;28;20230;-69
2023/12/15 01:29:31;;;;;;;6.60;5.13;;;;;20.90;101667.00;;;;2066518;28;20303;-69
2023/12/15 01:30:31;;;;;;;7.37;6.03;;;;;20.90;101674.00;;;;2069740;28;20273;-69
2023/12/15 01:31:32;;;;;;;7.50;5.23;;;;;20.90;101680.00;;;;2078283;28;20303;-69
2023/12/15 01:32:32;;;;;;;7.30;6.00;;;;;20.90;101682.00;;;;2080016;28;20271;-69
2023/12/15 01:33:32;;;;;;;5.90;4.20;;;;;20.90;101679.00;;;;2079012;28;20225;-69
2023/12/15 01:34:33;;;;;;;6.57;5.13;;;;;20.90;101686.00;;;;2080140;28;20244;-69
2023/12/15 01:35:33;;;;;;;6.07;4.47;;;;;20.90;101685.00;;;;2070499;28;20217;-69
2023/12/15 01:36:34;;;;;;;5.33;4.60;;;;;20.90;101683.00;;;;2079851;28;20585;-69
2023/12/15 01:37:34;;;;;;;6.15;5.15;;;;;20.90;101682.00;;;;2080230;28;20225;-69
2023/12/15 01:38:35;;;;;;;6.77;4.97;;;;;20.90;101679.00;;;;2082663;28;20217;-69
2023/12/15 01:39:35;;;;;;;7.10;5.80;;;;;20.90;101681.00;;;;2079570;28;20314;-69
2023/12/15 01:40:36;;;;;;;7.50;4.70;;;;;20.90;101682.00;;;;2067997;28;20237;-69
2023/12/15 01:41:36;;;;;;;7.47;5.50;;;;;20.90;101672.00;;;;2087677;28;20221;-69
2023/12/15 01:42:36;;;;;;;6.10;4.83;;;;;20.80;101678.00;;;;2082880;28;20217;-69
2023/12/15 01:43:36;;;;;;;5.53;4.93;;;;;20.80;101675.00;;;;2078682;28;20216;-69
2023/12/15 01:44:37;;;;;;;5.27;4.70;;;;;20.90;101679.00;;;;2078121;28;20214;-69
2023/12/15 01:45:38;;;;;;;6.90;5.20;;;;;20.90;101682.00;;;;2068368;28;20679;-70
2023/12/15 01:46:38;;;;;;;6.00;5.30;;;;;20.90;101675.00;;;;2080102;28;20487;-70
2023/12/15 01:47:39;;;;;;;6.50;4.87;;;;;20.90;101686.00;;;;2079050;28;20239;-70
2023/12/15 01:48:39;;;;;;;4.80;4.27;;;;;20.90;101676.00;;;;2076936;28;20727;-70
2023/12/15 01:49:39;;;;;;;5.90;4.80;;;;;20.90;101676.00;;;;2076224;28;20236;-70
2023/12/15 01:50:40;;;;;;;6.73;4.80;;;;;20.90;101680.00;;;;2067986;28;20232;-70
2023/12/15 01:51:40;;;;;;;5.90;4.60;;;;;20.90;101682.00;;;;2078845;28;20213;-70
2023/12/15 01:52:40;;;;;;;7.03;4.77;;;;;20.90;101680.00;;;;2077721;28;20211;-69
2023/12/15 01:53:42;;;;;;;5.13;4.43;;;;;20.90;101685.00;;;;2077073;28;20217;-69
2023/12/15 01:54:43;;;;;;;6.03;5.00;;;;;20.80;101685.00;;;;2077633;28;20630;-69
2023/12/15 01:55:43;;;;;;;4.87;4.37;;;;;20.80;101682.00;;;;2075772;28;20226;-69
2023/12/15 01:56:43;;;;;;;5.70;4.40;;;;;20.80;101688.00;;;;2087535;28;20213;-69
2023/12/15 01:57:44;;;;;;;5.83;4.80;;;;;20.90;101685.00;;;;2083073;28;20244;-69
2023/12/15 01:58:44;;;;;;;5.23;4.23;;;;;20.80;101697.00;;;;2079821;28;20283;-69
2023/12/15 01:59:51;;;;;;;6.70;5.10;;;;;20.80;101691.00;;;;2079309;28;20222;-70
2023/12/15 02:00:51;;;;;;;6.47;4.82;;;;;20.80;101700.00;;;;2070006;28;20217;-70
2023/12/15 02:01:52;;;;;;;6.80;4.90;;;;;20.80;101698.00;;;;2078751;28;20332;-70
2023/12/15 02:02:52;;;;;;;5.47;4.33;;;;;20.80;101705.00;;;;2083135;28;20267;-70
2023/12/15 02:03:52;;;;;;;6.40;5.30;;;;;20.80;101702.00;;;;2077547;28;20213;-70
2023/12/15 02:04:52;;;;;;;6.00;5.10;;;;;20.80;101716.00;;;;2079944;28;20205;-70
2023/12/15 02:05:53;;;;;;;6.20;5.03;;;;;20.80;101711.00;;;;2070939;28;20217;-70
2023/12/15 02:06:53;;;;;;;5.40;4.43;;;;;20.80;101711.00;;;;2081547;28;20213;-70
2023/12/15 02:07:53;;;;;;;4.90;4.40;;;;;20.80;101715.00;;;;2080821;28;20210;-70
2023/12/15 02:08:54;;;;;;;5.73;4.93;;;;;20.80;101715.00;;;;2081448;28;20316;-70
2023/12/15 02:09:55;;;;;;;5.57;3.93;;;;;20.80;101711.00;;;;2081466;28;20210;-70
2023/12/15 02:10:55;;;;;;;4.73;4.00;;;;;20.80;101714.00;;;;2071678;28;20267;-70
2023/12/15 02:11:55;;;;;;;7.13;5.10;;;;;20.80;101710.00;;;;2080426;28;20991;-70
2023/12/15 02:12:56;;;;;;;5.20;4.63;;;;;20.80;101713.00;;;;2080391;28;20201;-72
2023/12/15 02:13:56;;;;;;;5.60;4.47;;;;;20.80;101715.00;;;;2081069;28;20224;-70
2023/12/15 02:14:56;;;;;;;5.53;4.60;;;;;20.80;101724.00;;;;2078254;28;20263;-70
2023/12/15 02:15:57;;;;;;;6.33;4.70;;;;;20.80;101710.00;;;;2075516;28;20704;-70
2023/12/15 02:16:57;;;;;;;5.60;4.27;;;;;20.80;101709.00;;;;2080834;28;20201;-70
2023/12/15 02:17:57;;;;;;;5.47;4.53;;;;;20.70;101718.00;;;;2080733;28;20601;-69
2023/12/15 02:18:58;;;;;;;5.60;4.17;;;;;20.80;101712.00;;;;2080869;28;20600;-69
2023/12/15 02:19:58;;;;;;;4.80;4.30;;;;;20.80;101672.00;;;;2071588;28;20712;-69
2023/12/15 02:20:58;;;;;;;5.53;4.37;;;;;20.80;101713.00;;;;2081611;28;20701;-69
2023/12/15 02:21:59;;;;;;;4.67;4.20;;;;;20.80;101715.00;;;;2081292;28;20255;-69
2023/12/15 02:22:59;;;;;;;5.73;4.70;;;;;20.80;101716.00;;;;2081112;28;20225;-69
2023/12/15 02:23:59;;;;;;;5.67;4.70;;;;;20.80;101707.00;;;;2081073;28;20214;-69
2023/12/15 02:24:59;;;;;;;4.90;4.30;;;;;20.70;101710.00;;;;2071998;28;20198;-69
2023/12/15 02:26:00;;;;;;;4.70;4.17;;;;;20.80;101711.00;;;;2081553;28;20206;-69
2023/12/15 02:27:00;;;;;;;4.83;4.20;;;;;20.80;101703.00;;;;2081102;28;20205;-69
2023/12/15 02:28:00;;;;;;;5.63;4.50;;;;;20.70;101711.00;;;;2081492;28;20205;-69
2023/12/15 02:29:01;;;;;;;5.70;4.30;;;;;20.70;101713.00;;;;2080610;28;20224;-70
2023/12/15 02:30:01;;;;;;;6.13;4.50;;;;;20.70;101711.00;;;;2069598;28;20229;-70
2023/12/15 02:31:01;;;;;;;7.40;4.40;;;;;20.70;101718.00;;;;2080992;28;20201;-70
2023/12/15 02:32:02;;;;;;;6.43;4.70;;;;;20.70;101718.00;;;;2081578;28;20267;-69
2023/12/15 02:33:02;;;;;;;6.07;4.30;;;;;20.70;101720.00;;;;2080784;28;20260;-69
2023/12/15 02:34:02;;;;;;;5.60;4.40;;;;;20.70;101726.00;;;;2081166;28;20206;-69
2023/12/15 02:35:03;;;;;;;6.20;4.60;;;;;20.70;101725.00;;;;2071820;28;20214;-70
2023/12/15 02:36:04;;;;;;;5.17;4.40;;;;;20.70;101715.00;;;;2079669;28;20221;-70
2023/12/15 02:37:04;;;;;;;6.10;4.63;;;;;20.70;101715.00;;;;2076324;28;20210;-70
2023/12/15 02:38:07;;;;;;;6.30;4.40;;;;;20.70;101715.00;;;;2079983;28;20228;-70
2023/12/15 02:39:07;;;;;;;7.13;4.93;;;;;20.70;101713.00;;;;2080807;28;20206;-70
2023/12/15 02:40:08;;;;;;;6.30;4.33;;;;;20.70;101708.00;;;;2071479;28;20224;-70
2023/12/15 02:41:11;;;;;;;6.07;4.73;;;;;20.80;101705.00;;;;2080714;28;20303;-69
2023/12/15 02:42:11;;;;;;;7.60;4.25;;;;;20.70;101702.00;;;;2081083;28;20225;-69
2023/12/15 02:43:11;;;;;;;9.20;4.57;;;;;20.70;101707.00;;;;2078639;28;20234;-69
2023/12/15 02:44:11;;;;;;;6.17;4.50;;;;;20.70;101701.00;;;;2083968;28;20217;-69
2023/12/15 02:45:12;;;;;;;6.70;4.30;;;;;20.70;101716.00;;;;2071795;28;20222;-69
2023/12/15 02:46:12;;;;;;;8.70;4.80;;;;;20.70;101712.00;;;;2081186;28;20233;-69
2023/12/15 02:47:12;;;;;;;4.97;3.90;;;;;20.70;101706.00;;;;2081392;28;20213;-69
2023/12/15 02:48:13;;;;;;;4.60;4.00;;;;;20.70;101699.00;;;;2080935;28;20232;-69
2023/12/15 02:49:13;;;;;;;5.60;4.10;;;;;20.70;101693.00;;;;2081325;28;20233;-69
2023/12/15 02:50:13;;;;;;;5.80;4.50;;;;;20.70;101688.00;;;;2071381;28;20724;-69
2023/12/15 02:51:26;;;;;;;6.50;4.67;;;;;20.70;101690.00;;;;2080711;28;20345;-69
2023/12/15 02:52:26;;;;;;;7.47;4.65;;;;;20.70;101691.00;;;;2079790;28;20301;-70
2023/12/15 02:53:27;;;;;;;5.47;4.23;;;;;20.70;101694.00;;;;2081158;28;20574;-70
2023/12/15 02:54:27;;;;;;;5.40;4.27;;;;;20.70;101683.00;;;;2081414;28;20714;-70
2023/12/15 02:55:28;;;;;;;5.30;4.10;;;;;20.70;101692.00;;;;2071090;28;20968;-70
2023/12/15 02:56:28;;;;;;;5.63;4.33;;;;;20.70;101696.00;;;;2081429;28;20224;-70
2023/12/15 02:57:28;;;;;;;7.43;5.00;;;;;20.70;101700.00;;;;2080509;28;20308;-70
2023/12/15 02:58:29;;;;;;;3.90;3.50;;;;;20.70;101707.00;;;;2081446;28;20883;-70
2023/12/15 02:59:29;;;;;;;4.90;4.03;;;;;20.70;101706.00;;;;2080491;28;20202;-70
2023/12/15 03:00:29;;;;;;;4.90;4.27;;;;;20.70;101700.00;;;;2071731;28;20221;-70
2023/12/15 03:01:30;;;;;;;4.80;4.20;;;;;20.70;101696.00;;;;2080983;28;20217;-70
2023/12/15 03:02:30;;;;;;;5.83;4.00;;;;;20.70;101697.00;;;;2080732;28;20218;-70
2023/12/15 03:03:30;;;;;;;8.10;4.50;;;;;20.70;101705.00;;;;2081255;28;20299;-70
2023/12/15 03:04:30;;;;;;;4.77;3.90;;;;;20.70;101706.00;;;;2080234;28;20221;-70
2023/12/15 03:05:31;;;;;;;5.30;4.40;;;;;20.70;101705.00;;;;2071723;28;20253;-70
2023/12/15 03:06:31;;;;;;;5.00;4.47;;;;;20.70;101703.00;;;;2080557;28;20561;-70
2023/12/15 03:07:31;;;;;;;4.80;4.00;;;;;20.60;101712.00;;;;2079059;28;20635;-70
2023/12/15 03:08:32;;;;;;;5.37;4.53;;;;;20.70;101715.00;;;;2081160;28;20694;-70
2023/12/15 03:09:32;;;;;;;6.60;4.73;;;;;20.60;101707.00;;;;2080797;28;20535;-70
2023/12/15 03:10:32;;;;;;;6.90;4.83;;;;;20.60;101711.00;;;;2069463;28;20957;-70
2023/12/15 03:11:33;;;;;;;7.07;4.27;;;;;20.60;101720.00;;;;2080721;28;20701;-70
2023/12/15 03:12:33;;;;;;;6.10;4.57;;;;;20.60;101724.00;;;;2080954;28;20960;-70
2023/12/15 03:13:34;;;;;;;5.07;3.73;;;;;20.60;101725.00;;;;2080681;28;20213;-70
2023/12/15 03:14:35;;;;;;;5.32;4.53;;;;;20.60;101715.00;;;;2079827;28;20214;-70
2023/12/15 03:15:35;;;;;;;5.47;4.10;;;;;20.60;101727.00;;;;2062157;28;20897;-70
2023/12/15 03:16:35;;;;;;;5.73;4.50;;;;;20.70;101716.00;;;;2071376;28;20264;-70
2023/12/15 03:17:36;;;;;;;5.60;4.60;;;;;20.60;101722.00;;;;2082324;28;20221;-70
2023/12/15 03:18:37;;;;;;;5.67;4.47;;;;;20.60;101723.00;;;;2078393;28;20263;-69
2023/12/15 03:19:40;;;;;;;6.77;4.90;;;;;20.60;101728.00;;;;2081151;28;20596;-69
2023/12/15 03:20:40;;;;;;;7.22;4.65;;;;;20.60;101727.00;;;;2071018;28;20506;-69
2023/12/15 03:21:41;;;;;;;5.50;4.13;;;;;20.60;101733.00;;;;2081028;28;20707;-69
2023/12/15 03:22:41;;;;;;;6.93;4.50;;;;;20.60;101732.00;;;;2076413;28;20222;-69
2023/12/15 03:23:41;;;;;;;6.53;4.40;;;;;20.60;101736.00;;;;2080702;28;20302;-69
2023/12/15 03:24:42;;;;;;;6.10;4.40;;;;;20.60;101734.00;;;;2081185;28;20225;-69
2023/12/15 03:25:42;;;;;;;5.20;4.30;;;;;20.60;101740.00;;;;2071147;28;20256;-70
2023/12/15 03:26:42;;;;;;;4.93;3.70;;;;;20.60;101743.00;;;;2081197;28;20229;-70
2023/12/15 03:27:43;;;;;;;5.63;3.87;;;;;20.60;101755.00;;;;2078698;28;20214;-70
2023/12/15 03:28:43;;;;;;;5.27;4.43;;;;;20.60;101757.00;;;;2080615;28;20252;-70
2023/12/15 03:29:43;;;;;;;7.20;4.77;;;;;20.60;101758.00;;;;2081057;28;20290;-69
2023/12/15 03:30:44;;;;;;;5.90;4.07;;;;;20.60;101766.00;;;;2069721;28;20229;-69
2023/12/15 03:31:45;;;;;;;4.83;3.90;;;;;20.60;101754.00;;;;2081013;28;20256;-69
2023/12/15 03:32:45;;;;;;;6.50;4.40;;;;;20.60;101753.00;;;;2079315;28;20221;-69
2023/12/15 03:33:45;;;;;;;6.30;3.97;;;;;20.60;101760.00;;;;2081258;28;20256;-69
2023/12/15 03:34:45;;;;;;;5.40;4.53;;;;;20.60;101759.00;;;;2080033;28;20577;-69
2023/12/15 03:35:46;;;;;;;5.93;4.00;;;;;20.60;101757.00;;;;2071487;28;20633;-69
2023/12/15 03:36:46;;;;;;;5.97;4.50;;;;;20.60;101762.00;;;;2081024;28;20693;-69
2023/12/15 03:37:46;;;;;;;7.23;4.63;;;;;20.60;101760.00;;;;2080344;28;20701;-69
2023/12/15 03:38:47;;;;;;;4.70;4.20;;;;;20.60;101764.00;;;;2080757;28;20217;-70
2023/12/15 03:39:47;;;;;;;5.60;4.40;;;;;20.60;101768.00;;;;2080387;28;20220;-70
2023/12/15 03:40:47;;;;;;;5.10;4.10;;;;;20.60;101767.00;;;;2071437;28;20210;-70
2023/12/15 03:41:48;;;;;;;6.60;4.50;;;;;20.60;101778.00;;;;2080457;28;20776;-70
2023/12/15 03:42:48;;;;;;;6.33;4.70;;;;;20.60;101762.00;;;;2081043;28;20686;-70
2023/12/15 03:43:48;;;;;;;4.73;3.90;;;;;20.60;101758.00;;;;2080974;28;20217;-70
2023/12/15 03:44:49;;;;;;;4.90;4.00;;;;;20.60;101769.00;;;;2080134;28;20217;-70
2023/12/15 03:45:49;;;;;;;6.73;4.90;;;;;20.60;101770.00;;;;2071520;28;20259;-70
2023/12/15 03:46:49;;;;;;;4.40;3.97;;;;;20.60;101774.00;;;;2080328;28;20217;-70
2023/12/15 03:47:50;;;;;;;5.70;4.60;;;;;20.60;101772.00;;;;2080938;28;20240;-70
2023/12/15 03:48:50;;;;;;;5.13;4.10;;;;;20.60;101768.00;;;;2080265;28;20218;-70
2023/12/15 03:49:51;;;;;;;5.53;3.97;;;;;20.60;101775.00;;;;2076269;28;20214;-70
2023/12/15 03:50:51;;;;;;;5.77;4.77;;;;;20.60;101768.00;;;;2070742;28;20220;-70
2023/12/15 03:51:51;;;;;;;6.23;4.43;;;;;20.60;101770.00;;;;2085931;28;20220;-70
2023/12/15 03:52:52;;;;;;;6.97;4.27;;;;;20.60;101775.00;;;;2080967;28;20224;-70
2023/12/15 03:53:52;;;;;;;5.90;4.53;;;;;20.60;101737.00;;;;2080136;28;20249;-70
2023/12/15 03:54:52;;;;;;;5.13;4.10;;;;;20.60;101775.00;;;;2072589;28;20308;-70
2023/12/15 03:55:52;;;;;;;5.73;4.43;;;;;20.60;101782.00;;;;2071058;28;20206;-70
2023/12/15 03:56:57;;;;;;;6.87;4.70;;;;;20.50;101775.00;;;;2072708;28;20642;-70
2023/12/15 03:57:57;;;;;;;5.65;4.40;;;;;20.50;101781.00;;;;2079874;28;20693;-70
2023/12/15 03:58:58;;;;;;;6.13;4.90;;;;;20.50;101791.00;;;;2079625;28;20206;-70
2023/12/15 03:59:58;;;;;;;5.30;4.07;;;;;20.50;101788.00;;;;2071783;28;20276;-70
2023/12/15 04:00:58;;;;;;;6.30;4.40;;;;;20.50;101790.00;;;;2080556;28;20210;-70
2023/12/15 04:01:59;;;;;;;5.67;4.50;;;;;20.50;101782.00;;;;2080816;28;20210;-70
2023/12/15 04:02:59;;;;;;;5.33;4.20;;;;;20.50;101789.00;;;;2080908;28;20212;-70
2023/12/15 04:03:59;;;;;;;5.57;4.80;;;;;20.50;101796.00;;;;2080778;28;20209;-70
2023/12/15 04:05:00;;;;;;;4.10;3.70;;;;;20.50;101793.00;;;;2070850;28;20230;-70
2023/12/15 04:06:01;;;;;;;4.60;4.10;;;;;20.50;101791.00;;;;2080809;28;20233;-70
2023/12/15 04:07:02;;;;;;;5.20;4.05;;;;;20.50;101781.00;;;;2080138;28;20210;-70
2023/12/15 04:08:03;;;;;;;5.40;4.20;;;;;20.50;101789.00;;;;2080580;28;20245;-70
2023/12/15 04:09:03;;;;;;;7.28;5.15;;;;;20.50;101790.00;;;;2079819;28;20290;-70
2023/12/15 04:10:04;;;;;;;5.97;4.33;;;;;20.50;101780.00;;;;2071311;28;20279;-70
2023/12/15 04:11:04;;;;;;;5.22;4.38;;;;;20.60;101786.00;;;;2080620;28;20213;-70
2023/12/15 04:12:05;;;;;;;5.10;4.40;;;;;20.50;101791.00;;;;2080187;28;20340;-70
2023/12/15 04:13:06;;;;;;;5.60;4.47;;;;;20.60;101793.00;;;;2080738;28;20237;-70
2023/12/15 04:14:06;;;;;;;5.83;4.47;;;;;20.50;101795.00;;;;2080046;28;20213;-70
2023/12/15 04:15:08;;;;;;;6.23;4.47;;;;;20.50;101792.00;;;;2069048;28;20260;-70
2023/12/15 04:16:09;;;;;;;5.25;4.03;;;;;20.50;101798.00;;;;2076529;28;20217;-70
2023/12/15 04:17:09;;;;;;;4.90;4.10;;;;;20.50;101796.00;;;;2074939;28;20221;-70
2023/12/15 04:18:09;;;;;;;5.10;4.37;;;;;20.50;101803.00;;;;2080666;28;20387;-70
2023/12/15 04:19:09;;;;;;;5.47;4.50;;;;;20.50;101810.00;;;;2079164;28;20245;-70
2023/12/15 04:20:10;;;;;;;6.43;4.13;;;;;20.50;101810.00;;;;2070090;28;20220;-70
2023/12/15 04:21:11;;;;;;;6.20;4.33;;;;;20.50;101819.00;;;;2079996;28;20205;-69
2023/12/15 04:22:11;;;;;;;5.60;4.67;;;;;20.50;101815.00;;;;2080644;28;20206;-69
2023/12/15 04:23:12;;;;;;;7.20;4.60;;;;;20.30;101814.00;;;;2080204;28;20268;-69
2023/12/15 04:24:12;;;;;;;5.80;4.20;;;;;20.50;101814.00;;;;2080630;28;20209;-69
2023/12/15 04:25:12;;;;;;;6.00;4.40;;;;;20.50;101819.00;;;;2070928;28;20259;-69
2023/12/15 04:26:12;;;;;;;7.50;5.20;;;;;20.50;101815.00;;;;2079930;28;20229;-69
2023/12/15 04:27:13;;;;;;;6.27;4.50;;;;;20.50;101822.00;;;;2080697;28;20214;-69
2023/12/15 04:28:13;;;;;;;6.03;4.30;;;;;20.50;101821.00;;;;2080112;28;20224;-69
2023/12/15 04:29:13;;;;;;;6.77;5.20;;;;;20.50;101819.00;;;;2079813;28;20222;-69
2023/12/15 04:30:14;;;;;;;5.03;4.20;;;;;20.50;101820.00;;;;2070449;28;20224;-69
2023/12/15 04:31:14;;;;;;;6.23;4.50;;;;;20.50;101820.00;;;;2080502;28;20233;-69
2023/12/15 04:32:14;;;;;;;5.50;4.40;;;;;20.50;101834.00;;;;2080337;28;20732;-69
2023/12/15 04:33:15;;;;;;;6.60;4.60;;;;;20.50;101831.00;;;;2079386;28;20575;-69
2023/12/15 04:34:15;;;;;;;5.60;4.17;;;;;20.50;101830.00;;;;2080487;28;20221;-69
2023/12/15 04:35:15;;;;;;;4.93;4.03;;;;;20.50;101829.00;;;;2070709;28;20278;-69
2023/12/15 04:36:21;;;;;;;5.10;3.90;;;;;20.50;101825.00;;;;2080611;28;20248;-69
2023/12/15 04:37:22;;;;;;;5.88;4.07;;;;;20.50;101830.00;;;;2079804;28;20562;-69
2023/12/15 04:38:22;;;;;;;6.13;4.00;;;;;20.50;101823.00;;;;2080330;28;20252;-69
2023/12/15 04:39:22;;;;;;;5.00;4.50;;;;;20.50;101827.00;;;;2080467;28;20220;-69
2023/12/15 04:40:23;;;;;;;5.17;4.10;;;;;20.50;101830.00;;;;2068788;28;20237;-69
2023/12/15 04:41:23;;;;;;;6.33;4.30;;;;;20.50;101830.00;;;;2079897;28;20232;-69
2023/12/15 04:42:24;;;;;;;6.37;4.10;;;;;20.50;101785.00;;;;2079729;28;20229;-69
2023/12/15 04:43:24;;;;;;;6.57;4.40;;;;;20.50;101827.00;;;;2084184;28;20264;-69
2023/12/15 04:44:24;;;;;;;5.50;4.30;;;;;20.50;101823.00;;;;2079171;28;20824;-69
2023/12/15 04:45:25;;;;;;;6.13;4.17;;;;;20.50;101831.00;;;;2070008;28;20229;-69
2023/12/15 04:46:26;;;;;;;5.00;4.40;;;;;20.40;101832.00;;;;2079928;28;20245;-69
2023/12/15 04:47:26;;;;;;;7.80;3.97;;;;;20.50;101829.00;;;;2083176;28;20614;-69
2023/12/15 04:48:26;;;;;;;6.57;4.83;;;;;20.40;101829.00;;;;2080414;28;20225;-69
2023/12/15 04:49:27;;;;;;;5.93;4.10;;;;;20.40;101818.00;;;;2079732;28;20232;-69
2023/12/15 04:50:27;;;;;;;4.40;3.77;;;;;20.40;101825.00;;;;2073935;28;20364;-69
2023/12/15 04:51:27;;;;;;;6.67;4.70;;;;;20.40;101761.00;;;;2079704;28;20252;-69
2023/12/15 04:52:28;;;;;;;5.07;3.97;;;;;20.40;101827.00;;;;2079043;28;20275;-69
2023/12/15 04:53:28;;;;;;;5.27;4.07;;;;;20.40;101833.00;;;;2071354;28;20241;-69
2023/12/15 04:54:29;;;;;;;7.03;4.47;;;;;20.40;101829.00;;;;2079215;28;20210;-69
2023/12/15 04:55:29;;;;;;;7.90;4.60;;;;;20.50;101827.00;;;;2070311;28;20267;-69
2023/12/15 04:56:29;;;;;;;5.50;4.03;;;;;20.40;101828.00;;;;2079154;28;20213;-69
2023/12/15 04:57:29;;;;;;;6.43;4.47;;;;;20.40;101829.00;;;;2080236;28;20232;-69
2023/12/15 04:58:30;;;;;;;6.97;4.57;;;;;20.40;101837.00;;;;2079991;28;20210;-69
2023/12/15 04:59:30;;;;;;;7.53;4.67;;;;;20.40;101840.00;;;;2079625;28;20584;-69